createdAt,value
2022-08-09T00:00:20.604Z,17.20
2022-08-09T00:02:59.028Z,17.20
2022-08-09T00:06:18.831Z,17.10
2022-08-09T00:08:31.657Z,17.10
2022-08-09T00:11:06.064Z,17.10
2022-08-09T00:13:59.648Z,17.10
2022-08-09T00:16:38.475Z,17.10
2022-08-09T00:19:09.429Z,17.00
2022-08-09T00:21:43.129Z,17.00
2022-08-09T00:24:45.988Z,17.00
2022-08-09T00:27:15.738Z,16.90
2022-08-09T00:30:24.476Z,16.70
2022-08-09T00:32:55.881Z,16.50
2022-08-09T00:35:26.694Z,16.40
2022-08-09T00:37:58.199Z,16.40
2022-08-09T00:40:30.945Z,16.60
2022-08-09T00:44:19.577Z,16.50
2022-08-09T00:45:54.069Z,16.50
2022-08-09T00:48:23.703Z,16.40
2022-08-09T00:51:10.301Z,16.30
2022-08-09T00:53:43.038Z,16.30
2022-08-09T00:56:18.568Z,16.10
2022-08-09T00:58:54.433Z,16.00
2022-08-09T01:01:32.391Z,16.00
2022-08-09T01:04:38.269Z,15.90
2022-08-09T01:07:38.030Z,15.90
2022-08-09T01:11:19.319Z,15.90
2022-08-09T01:14:00.262Z,16.00
2022-08-09T01:16:50.978Z,16.00
2022-08-09T01:19:57.264Z,16.10
2022-08-09T01:23:02.771Z,16.20
2022-08-09T01:26:07.617Z,16.10
2022-08-09T01:28:39.857Z,16.00
2022-08-09T01:32:31.068Z,15.90
2022-08-09T01:34:18.821Z,15.90
2022-08-09T01:36:50.252Z,16.00
2022-08-09T01:39:17.945Z,16.00
2022-08-09T01:41:56.143Z,16.00
2022-08-09T01:44:30.192Z,16.10
2022-08-09T01:46:59.969Z,16.20
2022-08-09T01:49:38.890Z,16.20
2022-08-09T01:52:12.412Z,16.40
2022-08-09T01:54:49.047Z,16.40
2022-08-09T01:57:40.164Z,16.30
2022-08-09T02:00:35.038Z,16.20
2022-08-09T02:03:03.312Z,16.00
2022-08-09T02:05:38.013Z,15.90
2022-08-09T02:08:39.539Z,15.90
2022-08-09T02:11:16.711Z,16.00
2022-08-09T02:14:06.494Z,15.90
2022-08-09T02:16:59.755Z,15.90
2022-08-09T02:19:24.361Z,15.80
2022-08-09T02:22:15.742Z,15.60
2022-08-09T02:24:51.902Z,15.60
2022-08-09T02:27:43.248Z,15.70
2022-08-09T02:30:12.470Z,15.70
2022-08-09T02:32:46.175Z,15.80
2022-08-09T02:36:01.456Z,15.80
2022-08-09T02:38:23.636Z,15.80
2022-08-09T02:41:09.280Z,15.90
2022-08-09T02:43:42.416Z,15.80
2022-08-09T02:46:27.397Z,15.70
2022-08-09T02:49:00.383Z,15.60
2022-08-09T02:51:36.981Z,15.60
2022-08-09T02:54:10.823Z,15.50
2022-08-09T02:56:51.346Z,15.30
2022-08-09T02:59:36.047Z,15.20
2022-08-09T03:02:09.805Z,15.10
2022-08-09T03:04:41.011Z,14.90
2022-08-09T03:07:13.757Z,14.80
2022-08-09T03:09:53.928Z,14.80
2022-08-09T03:12:24.680Z,14.90
2022-08-09T03:14:54.032Z,14.80
2022-08-09T03:17:27.131Z,14.80
2022-08-09T03:20:03.425Z,14.90
2022-08-09T03:22:41.946Z,15.00
2022-08-09T03:25:25.765Z,15.00
2022-08-09T03:28:02.937Z,15.00
2022-08-09T03:30:34.256Z,15.10
2022-08-09T03:33:17.361Z,15.10
2022-08-09T03:36:12.792Z,15.10
2022-08-09T03:38:42.108Z,15.00
2022-08-09T03:41:16.033Z,15.00
2022-08-09T03:44:07.587Z,15.00
2022-08-09T03:46:33.197Z,15.00
2022-08-09T03:49:04.397Z,14.90
2022-08-09T03:51:56.910Z,15.00
2022-08-09T03:54:31.226Z,14.90
2022-08-09T03:57:04.475Z,14.90
2022-08-09T03:59:54.971Z,14.90
2022-08-09T04:02:28.703Z,14.90
2022-08-09T04:05:06.146Z,14.90
2022-08-09T04:07:52.906Z,15.00
2022-08-09T04:10:29.180Z,14.90
2022-08-09T04:13:01.078Z,14.80
2022-08-09T04:15:51.983Z,14.80
2022-08-09T04:18:21.422Z,14.90
2022-08-09T04:20:49.698Z,15.00
2022-08-09T04:23:17.733Z,15.20
2022-08-09T04:25:52.295Z,15.40
2022-08-09T04:28:30.728Z,15.70
2022-08-09T04:31:07.762Z,16.00
2022-08-09T04:33:52.234Z,16.30
2022-08-09T04:36:27.678Z,16.90
2022-08-09T04:38:56.387Z,17.50
2022-08-09T04:41:32.011Z,18.10
2022-08-09T04:44:07.274Z,18.20
2022-08-09T04:46:58.454Z,18.20
2022-08-09T04:49:40.628Z,18.30
2022-08-09T04:52:18.539Z,18.80
2022-08-09T04:54:52.234Z,18.80
2022-08-09T04:57:24.089Z,18.40
2022-08-09T04:59:53.263Z,18.10
2022-08-09T05:02:20.398Z,18.50
2022-08-09T05:04:47.523Z,19.00
2022-08-09T05:07:19.178Z,19.40
2022-08-09T05:09:50.067Z,19.10
2022-08-09T05:12:17.562Z,19.00
2022-08-09T05:14:45.601Z,19.40
2022-08-09T05:18:36.795Z,19.60
2022-08-09T05:19:59.768Z,19.70
2022-08-09T05:22:33.513Z,20.20
2022-08-09T05:25:04.887Z,20.70
2022-08-09T05:27:32.122Z,21.00
2022-08-09T05:29:59.157Z,21.20
2022-08-09T05:32:30.093Z,21.20
2022-08-09T05:34:57.473Z,20.60
2022-08-09T05:37:26.364Z,19.80
2022-08-09T05:39:54.128Z,19.80
2022-08-09T05:42:30.976Z,20.40
2022-08-09T05:45:00.114Z,21.00
2022-08-09T05:47:30.210Z,21.40
2022-08-09T05:50:28.137Z,21.70
2022-08-09T05:52:53.770Z,22.00
2022-08-09T05:55:24.184Z,22.30
2022-08-09T05:57:56.543Z,22.40
2022-08-09T06:00:30.305Z,22.60
2022-08-09T06:03:02.894Z,22.80
2022-08-09T06:05:57.663Z,23.00
2022-08-09T06:08:24.512Z,23.30
2022-08-09T06:10:53.752Z,23.30
2022-08-09T06:13:21.511Z,23.20
2022-08-09T06:15:53.035Z,23.50
2022-08-09T06:18:24.824Z,23.70
2022-08-09T06:20:58.643Z,23.90
2022-08-09T06:23:57.687Z,24.10
2022-08-09T06:26:20.167Z,24.10
2022-08-09T06:29:00.912Z,24.40
2022-08-09T06:31:40.142Z,24.50
2022-08-09T06:34:22.615Z,24.50
2022-08-09T06:36:50.757Z,24.40
2022-08-09T06:39:48.163Z,24.40
2022-08-09T06:42:13.422Z,24.70
2022-08-09T06:44:40.594Z,24.90
2022-08-09T06:47:08.536Z,25.00
2022-08-09T06:50:12.252Z,25.10
2022-08-09T06:52:29.078Z,25.10
2022-08-09T06:54:56.173Z,25.30
2022-08-09T06:57:42.419Z,25.30
2022-08-09T07:00:50.845Z,25.50
2022-08-09T07:02:58.993Z,25.60
2022-08-09T07:05:58.214Z,25.60
2022-08-09T07:08:13.481Z,25.70
2022-08-09T07:10:40.662Z,25.60
2022-08-09T07:13:27.258Z,25.80
2022-08-09T07:16:41.166Z,26.00
2022-08-09T07:18:42.077Z,25.90
2022-08-09T07:21:10.383Z,25.70
2022-08-09T07:23:56.680Z,24.90
2022-08-09T07:26:25.412Z,24.80
2022-08-09T07:29:09.236Z,24.90
2022-08-09T07:31:45.218Z,25.50
2022-08-09T07:34:20.410Z,25.50
2022-08-09T07:36:49.522Z,25.90
2022-08-09T07:39:20.525Z,26.50
2022-08-09T07:42:05.237Z,26.80
2022-08-09T07:44:51.907Z,26.90
2022-08-09T07:47:21.703Z,27.10
2022-08-09T07:50:04.418Z,26.90
2022-08-09T07:52:36.730Z,26.90
2022-08-09T07:55:09.437Z,27.40
2022-08-09T07:57:37.169Z,27.50
2022-08-09T08:00:20.818Z,27.80
2022-08-09T08:03:04.684Z,28.00
2022-08-09T08:05:53.554Z,28.20
2022-08-09T08:09:02.524Z,28.20
2022-08-09T08:12:09.307Z,28.30
2022-08-09T08:13:56.319Z,28.40
2022-08-09T08:16:29.584Z,28.40
2022-08-09T08:18:58.039Z,28.50
2022-08-09T08:21:26.646Z,28.60
2022-08-09T08:23:56.209Z,28.80
2022-08-09T08:26:26.397Z,29.00
2022-08-09T08:28:54.123Z,29.00
2022-08-09T08:31:21.207Z,28.80
2022-08-09T08:34:06.516Z,28.90
2022-08-09T08:36:36.817Z,29.30
2022-08-09T08:39:10.448Z,29.40
2022-08-09T08:41:51.112Z,29.30
2022-08-09T08:44:27.384Z,28.60
2022-08-09T08:47:04.785Z,27.80
2022-08-09T08:49:46.835Z,27.50
2022-08-09T08:52:57.398Z,27.30
2022-08-09T08:55:09.907Z,27.00
2022-08-09T08:57:37.910Z,26.40
2022-08-09T09:00:17.042Z,26.30
2022-08-09T09:02:52.651Z,26.10
2022-08-09T09:05:42.100Z,26.30
2022-08-09T09:08:29.778Z,26.80
2022-08-09T09:11:05.825Z,27.40
2022-08-09T09:13:50.188Z,27.60
2022-08-09T09:16:35.954Z,27.10
2022-08-09T09:19:39.379Z,27.40
2022-08-09T09:22:03.647Z,26.60
2022-08-09T09:24:34.807Z,26.30
2022-08-09T09:27:05.752Z,26.90
2022-08-09T09:30:08.566Z,27.70
2022-08-09T09:32:35.056Z,27.80
2022-08-09T09:35:12.854Z,27.30
2022-08-09T09:37:46.263Z,26.40
2022-08-09T09:40:13.367Z,25.60
2022-08-09T09:47:03.580Z,25.50
2022-08-09T09:50:06.839Z,25.80
2022-08-09T09:52:36.551Z,26.50
2022-08-09T09:55:16.209Z,27.10
2022-08-09T09:58:20.197Z,27.00
2022-08-09T10:00:59.929Z,26.60
2022-08-09T10:03:57.930Z,26.70
2022-08-09T10:06:53.818Z,27.10
2022-08-09T10:09:23.883Z,27.80
2022-08-09T10:12:14.614Z,28.20
2022-08-09T10:14:51.506Z,28.50
2022-08-09T10:17:50.715Z,27.50
2022-08-09T10:20:27.866Z,27.30
2022-08-09T10:23:17.187Z,27.40
2022-08-09T10:26:06.158Z,26.90
2022-08-09T10:28:35.371Z,26.90
2022-08-09T10:34:10.128Z,26.70
2022-08-09T10:36:40.082Z,26.80
2022-08-09T10:39:15.735Z,26.90
2022-08-09T10:41:48.493Z,26.50
2022-08-09T10:44:24.746Z,26.30
2022-08-09T10:48:11.965Z,26.60
2022-08-09T10:50:27.232Z,27.00
2022-08-09T10:54:02.105Z,27.00
2022-08-09T10:56:37.626Z,27.00
2022-08-09T10:59:30.717Z,26.80
2022-08-09T11:03:27.582Z,26.70
2022-08-09T11:05:13.850Z,26.20
2022-08-09T11:07:57.495Z,25.90
2022-08-09T11:11:00.888Z,26.00
2022-08-09T11:13:50.367Z,26.00
2022-08-09T11:16:40.974Z,26.20
2022-08-09T11:19:10.427Z,26.30
2022-08-09T11:22:10.311Z,25.90
2022-08-09T11:25:08.755Z,25.60
2022-08-09T11:28:03.535Z,25.60
2022-08-09T11:30:36.136Z,25.80
2022-08-09T11:33:26.561Z,26.20
2022-08-09T11:35:59.430Z,26.30
2022-08-09T11:38:35.507Z,26.50
2022-08-09T11:41:16.045Z,26.30
2022-08-09T11:43:52.865Z,26.10
2022-08-09T11:46:32.989Z,26.10
2022-08-09T11:49:04.962Z,26.00
2022-08-09T11:52:56.594Z,25.80
2022-08-09T11:55:39.914Z,25.90
2022-08-09T11:58:15.227Z,25.50
2022-08-09T12:00:52.886Z,25.60
2022-08-09T12:03:55.404Z,25.70
2022-08-09T12:06:14.160Z,25.50
2022-08-09T12:08:52.669Z,25.80
2022-08-09T12:11:22.482Z,26.00
2022-08-09T12:14:07.452Z,26.00
2022-08-09T12:16:42.998Z,25.80
2022-08-09T12:19:13.237Z,25.80
2022-08-09T12:21:50.633Z,25.80
2022-08-09T12:24:25.729Z,25.80
2022-08-09T12:29:12.070Z,25.50
2022-08-09T12:30:01.809Z,24.80
2022-08-09T12:32:45.115Z,24.70
2022-08-09T12:35:19.135Z,25.00
2022-08-09T12:37:51.655Z,25.20
2022-08-09T12:40:24.431Z,25.70
2022-08-09T12:42:53.651Z,25.50
2022-08-09T12:45:34.759Z,25.60
2022-08-09T12:48:20.070Z,25.70
2022-08-09T12:50:56.520Z,25.80
2022-08-09T12:53:38.409Z,25.80
2022-08-09T12:56:39.582Z,25.80
2022-08-09T12:59:20.670Z,25.80
2022-08-09T13:02:00.389Z,26.00
2022-08-09T13:04:37.196Z,25.90
2022-08-09T13:07:19.418Z,25.90
2022-08-09T13:09:55.608Z,26.00
2022-08-09T13:12:28.374Z,25.90
2022-08-09T13:15:07.807Z,25.90
2022-08-09T13:18:03.091Z,26.10
2022-08-09T13:20:37.813Z,26.40
2022-08-09T13:24:07.269Z,26.60
2022-08-09T13:26:49.815Z,26.80
2022-08-09T13:29:42.041Z,26.90
2022-08-09T13:32:17.448Z,26.80
2022-08-09T13:34:53.815Z,26.70
2022-08-09T13:37:24.684Z,26.70
2022-08-09T13:41:51.582Z,26.70
2022-08-09T13:42:57.867Z,27.10
2022-08-09T13:45:31.864Z,27.40
2022-08-09T13:48:14.639Z,27.20
2022-08-09T13:50:43.180Z,27.30
2022-08-09T13:53:10.624Z,27.10
2022-08-09T13:55:38.171Z,26.80
2022-08-09T13:58:07.979Z,26.80
2022-08-09T14:00:46.840Z,26.80
2022-08-09T14:04:01.406Z,26.80
2022-08-09T14:06:14.573Z,27.20
2022-08-09T14:08:46.987Z,27.40
2022-08-09T14:11:16.265Z,27.20
2022-08-09T14:14:24.621Z,27.40
2022-08-09T14:16:31.202Z,27.50
2022-08-09T14:18:59.530Z,27.40
2022-08-09T14:21:32.054Z,27.50
2022-08-09T14:24:01.300Z,27.50
2022-08-09T14:26:38.018Z,27.50
2022-08-09T14:29:25.726Z,27.50
2022-08-09T14:31:55.444Z,27.40
2022-08-09T14:34:32.366Z,27.20
2022-08-09T14:37:06.668Z,27.00
2022-08-09T14:39:40.419Z,26.70
2022-08-09T14:42:31.149Z,26.60
2022-08-09T14:46:39.590Z,26.60
2022-08-09T14:47:56.871Z,26.50
2022-08-09T14:50:25.319Z,26.30
2022-08-09T14:52:54.565Z,26.30
2022-08-09T14:55:22.026Z,26.40
2022-08-09T14:57:50.090Z,26.30
2022-08-09T15:00:18.486Z,26.20
2022-08-09T15:02:47.693Z,26.20
2022-08-09T15:05:19.640Z,26.10
2022-08-09T15:07:56.675Z,26.00
2022-08-09T15:10:31.526Z,25.80
2022-08-09T15:13:00.108Z,25.90
2022-08-09T15:15:29.498Z,25.90
2022-08-09T15:18:02.241Z,26.10
2022-08-09T15:21:56.461Z,26.20
2022-08-09T15:24:01.905Z,26.10
2022-08-09T15:26:18.392Z,26.10
2022-08-09T15:28:54.743Z,26.20
2022-08-09T15:31:22.365Z,26.10
2022-08-09T15:34:31.754Z,25.90
2022-08-09T15:36:56.066Z,25.80
2022-08-09T15:39:43.722Z,25.70
2022-08-09T15:42:14.910Z,25.60
2022-08-09T15:44:42.297Z,25.60
2022-08-09T15:47:14.029Z,25.60
2022-08-09T15:49:41.395Z,25.60
2022-08-09T15:52:28.376Z,25.70
2022-08-09T15:54:55.627Z,25.80
2022-08-09T15:57:35.066Z,25.70
2022-08-09T16:00:14.201Z,25.70
2022-08-09T16:02:53.587Z,25.60
2022-08-09T16:05:24.170Z,25.50
2022-08-09T16:07:51.571Z,25.30
2022-08-09T16:10:55.029Z,25.20
2022-08-09T16:13:21.085Z,25.30
2022-08-09T16:16:04.628Z,25.50
2022-08-09T16:18:44.625Z,25.60
2022-08-09T16:21:17.477Z,25.80
2022-08-09T16:24:01.922Z,25.80
2022-08-09T16:26:34.539Z,25.70
2022-08-09T16:29:11.166Z,25.70
2022-08-09T16:32:20.019Z,25.60
2022-08-09T16:34:28.737Z,26.00
2022-08-09T16:36:57.109Z,25.90
2022-08-09T16:39:25.804Z,26.20
2022-08-09T16:42:03.906Z,26.20
2022-08-09T16:44:32.618Z,26.20
2022-08-09T16:47:03.818Z,26.10
2022-08-09T16:50:30.330Z,25.80
2022-08-09T16:52:35.764Z,25.80
2022-08-09T16:55:03.996Z,25.90
2022-08-09T16:57:40.495Z,26.00
2022-08-09T17:00:22.715Z,25.90
2022-08-09T17:02:49.983Z,25.90
2022-08-09T17:05:19.624Z,25.80
2022-08-09T17:08:43.599Z,25.50
2022-08-09T17:10:34.802Z,25.70
2022-08-09T17:13:06.242Z,25.20
2022-08-09T17:15:59.142Z,25.00
2022-08-09T17:18:27.034Z,25.20
2022-08-09T17:20:57.734Z,25.50
2022-08-09T17:24:21.328Z,25.60
2022-08-09T17:26:12.721Z,25.20
2022-08-09T17:28:40.081Z,25.00
2022-08-09T17:31:07.602Z,25.30
2022-08-09T17:33:35.954Z,25.00
2022-08-09T17:36:06.196Z,25.00
2022-08-09T17:38:39.467Z,25.20
2022-08-09T17:41:08.801Z,25.50
2022-08-09T17:43:37.521Z,25.40
2022-08-09T17:46:08.696Z,25.00
2022-08-09T17:48:39.406Z,25.30
2022-08-09T17:51:19.290Z,25.40
2022-08-09T17:53:54.629Z,24.90
2022-08-09T17:56:27.921Z,24.50
2022-08-09T17:58:58.082Z,24.80
2022-08-09T18:01:25.547Z,24.60
2022-08-09T18:04:12.626Z,24.50
2022-08-09T18:06:40.176Z,24.30
2022-08-09T18:09:10.475Z,24.10
2022-08-09T18:12:05.902Z,23.90
2022-08-09T18:14:28.502Z,23.70
2022-08-09T18:16:56.487Z,23.50
2022-08-09T18:20:59.965Z,23.40
2022-08-09T18:22:13.180Z,23.20
2022-08-09T18:24:45.790Z,23.00
2022-08-09T18:27:49.163Z,22.90
2022-08-09T18:30:40.623Z,22.80
2022-08-09T18:32:54.040Z,22.80
2022-08-09T18:35:53.206Z,22.60
2022-08-09T18:38:11.728Z,22.50
2022-08-09T18:40:40.666Z,22.30
2022-08-09T18:43:08.991Z,22.20
2022-08-09T18:46:51.425Z,22.10
2022-08-09T18:48:23.396Z,22.20
2022-08-09T18:50:57.967Z,22.10
2022-08-09T18:53:26.409Z,22.00
2022-08-09T18:56:10.722Z,21.90
2022-08-09T18:58:38.930Z,21.80
2022-08-09T19:01:06.992Z,21.60
2022-08-09T19:03:38.466Z,21.60
2022-08-09T19:06:22.580Z,21.50
2022-08-09T19:08:55.442Z,21.50
2022-08-09T19:11:37.791Z,21.40
2022-08-09T19:14:06.631Z,21.40
2022-08-09T19:16:36.672Z,21.30
2022-08-09T19:19:25.639Z,21.20
2022-08-09T19:22:04.667Z,21.20
2022-08-09T19:25:08.940Z,21.10
2022-08-09T19:27:23.031Z,21.00
2022-08-09T19:30:21.514Z,21.00
2022-08-09T19:32:37.571Z,20.90
2022-08-09T19:35:05.716Z,20.90
2022-08-09T19:37:54.643Z,20.80
2022-08-09T19:40:21.468Z,20.80
2022-08-09T19:42:49.570Z,20.70
2022-08-09T19:45:17.421Z,20.70
2022-08-09T19:47:45.756Z,20.70
2022-08-09T19:50:50.773Z,20.60
2022-08-09T19:53:02.538Z,20.50
2022-08-09T19:56:02.366Z,20.50
2022-08-09T19:58:29.955Z,20.50
2022-08-09T20:00:58.115Z,20.40
2022-08-09T20:04:10.757Z,20.40
2022-08-09T20:06:23.773Z,20.40
2022-08-09T20:08:57.769Z,20.40
2022-08-09T20:11:43.142Z,20.40
2022-08-09T20:14:16.671Z,20.40
2022-08-09T20:16:53.300Z,20.40
2022-08-09T20:19:47.707Z,20.30
2022-08-09T20:22:10.240Z,20.30
2022-08-09T20:24:42.506Z,20.20
2022-08-09T20:27:11.491Z,20.20
2022-08-09T20:29:41.295Z,20.20
2022-08-09T20:32:30.204Z,20.20
2022-08-09T20:34:58.044Z,20.20
2022-08-09T20:37:25.508Z,20.20
2022-08-09T20:40:18.865Z,20.10
2022-08-09T20:43:00.164Z,20.20
2022-08-09T20:45:57.456Z,20.10
2022-08-09T20:48:21.671Z,20.10
2022-08-09T20:50:55.724Z,20.10
2022-08-09T20:53:35.713Z,20.10
2022-08-09T20:56:20.259Z,20.10
2022-08-09T20:58:54.180Z,20.00
2022-08-09T21:01:34.296Z,19.90
2022-08-09T21:05:54.123Z,19.80
2022-08-09T21:07:12.177Z,19.80
2022-08-09T21:09:56.383Z,19.80
2022-08-09T21:15:23.576Z,19.70
2022-08-09T21:18:22.933Z,19.70
2022-08-09T21:20:54.079Z,19.70
2022-08-09T21:23:47.886Z,19.70
2022-08-09T21:26:16.923Z,19.60
2022-08-09T21:28:55.994Z,19.60
2022-08-09T21:31:48.631Z,19.50
2022-08-09T21:34:17.095Z,19.50
2022-08-09T21:36:59.993Z,19.50
2022-08-09T21:39:42.323Z,19.50
2022-08-09T21:42:13.158Z,19.50
2022-08-09T21:44:42.877Z,19.60
2022-08-09T21:47:23.826Z,19.60
2022-08-09T21:49:53.922Z,19.60
2022-08-09T21:52:25.502Z,19.50
2022-08-09T21:55:03.146Z,19.60
2022-08-09T21:57:59.766Z,19.50
2022-08-09T22:00:35.344Z,19.50
2022-08-09T22:03:19.112Z,19.40
2022-08-09T22:05:51.140Z,19.40
2022-08-09T22:08:24.745Z,19.30
2022-08-09T22:11:00.602Z,19.30
2022-08-09T22:13:48.201Z,19.30
2022-08-09T22:16:21.732Z,19.20
2022-08-09T22:18:55.069Z,19.20
2022-08-09T22:21:50.052Z,19.20
2022-08-09T22:24:29.367Z,19.20
2022-08-09T22:26:59.718Z,19.10
2022-08-09T22:29:46.481Z,19.10
2022-08-09T22:32:29.993Z,19.00
2022-08-09T22:35:06.217Z,18.90
2022-08-09T22:37:45.812Z,18.90
2022-08-09T22:40:22.477Z,18.90
2022-08-09T22:42:53.816Z,18.90
2022-08-09T22:48:12.673Z,18.90
2022-08-09T22:48:35.019Z,18.90
2022-08-09T22:51:10.790Z,18.90
2022-08-09T22:54:02.353Z,18.80
2022-08-09T22:56:41.313Z,18.80
2022-08-09T22:59:57.795Z,18.70
2022-08-09T23:01:59.453Z,18.60
2022-08-09T23:04:32.828Z,18.70
2022-08-09T23:08:21.152Z,18.60
2022-08-09T23:10:13.000Z,18.60
2022-08-09T23:12:42.672Z,18.50
2022-08-09T23:15:11.661Z,18.50
2022-08-09T23:17:38.846Z,18.50
2022-08-09T23:20:17.067Z,18.50
2022-08-09T23:22:45.982Z,18.50
2022-08-09T23:25:14.652Z,18.50
2022-08-09T23:28:09.504Z,18.50
2022-08-09T23:30:52.407Z,18.50
2022-08-09T23:33:26.434Z,18.60
2022-08-09T23:36:04.474Z,18.50
2022-08-09T23:38:49.069Z,18.60
2022-08-09T23:41:27.565Z,18.50
2022-08-09T23:44:08.556Z,18.40
2022-08-09T23:46:40.439Z,18.40
2022-08-09T23:49:12.741Z,18.50
2022-08-09T23:51:43.638Z,18.50
2022-08-09T23:54:20.283Z,18.40
2022-08-09T23:56:54.917Z,18.30
2022-08-09T23:59:50.898Z,18.20
